Main page
METAR-TAF:

METAR-TAF

Airports :

Albert – Picardie Airport

Albert, France

latitude: 49-58-21N, longitude: 002-41-29E, elevation: 111 m

Current weather observation

The report was made 23 minutes ago, at 21:00 UTC
Wind 5 kt from the South/Southeast
Temperature 6°C
Humidity 100%
Pressure 1028 hPa
Visibility 10 km or more
no clouds below 1500 m and no cumulonimbus

METAR: LFAQ 132100Z AUTO 16005KT CAVOK 06/06 Q1028

Time: 22:23 (21:23 UTC)

Forecast

The report was made 7 hours and 23 minutes ago, at 14:00 UTC
Forecast valid from 13 at 15 UTC to 13 at 24 UTC
Wind 12 kt from the West/Southwest
Visibility 10 km or more
Broken clouds at a height of 3000 ft
Becoming
from 13 at 15 UTC to 13 at 18 UTC
Wind 7 kt from the South
Becoming
from 13 at 19 UTC to 13 at 21 UTC
Visibility: 2000 m
mist
Becoming
from 13 at 22 UTC to 13 at 24 UTC
Visibility: 0200 m
fog

TAF: LFAQ 131400Z 1315/1324 24012KT 9999 BKN030 BECMG 1315/1318 18007KT BECMG 1319/1321 2000 BR BECMG 1322/1324 0200 FG VV///

Weather observations and forecasts of more than 4000 airports (METAR and TAF reports).

The available stations are represented by yellow and red dots on the map.

Hover mouse over dot to see the name of the station.

Then click to see weather observations and forecasts.

To change the map : click on the green buttons with a black cross to zoom in, on the green button with a dash to zoom out, or on the green arrows for adjacent maps.


METAR-TAF: